sensor_id;sensor_type;location;lat;lon;timestamp;pressure;altitude;pressure_sealevel;temperature;humidity
6567;BME280;3317;43.994;22.878;2023-01-30T00:01:36;101610.19;;;3.63;61.09
6567;BME280;3317;43.994;22.878;2023-01-30T00:04:04;101608.63;;;3.59;61.19
6567;BME280;3317;43.994;22.878;2023-01-30T00:06:31;101612.88;;;3.63;61.61
6567;BME280;3317;43.994;22.878;2023-01-30T00:08:59;101604.91;;;3.62;61.78
6567;BME280;3317;43.994;22.878;2023-01-30T00:11:25;101605.72;;;3.64;61.76
6567;BME280;3317;43.994;22.878;2023-01-30T00:13:54;101604.13;;;3.60;61.48
6567;BME280;3317;43.994;22.878;2023-01-30T00:16:21;101599.66;;;3.60;61.57
6567;BME280;3317;43.994;22.878;2023-01-30T00:18:48;101604.06;;;3.61;61.42
6567;BME280;3317;43.994;22.878;2023-01-30T00:21:16;101610.19;;;3.63;61.65
6567;BME280;3317;43.994;22.878;2023-01-30T00:23:44;101587.44;;;3.55;61.79
6567;BME280;3317;43.994;22.878;2023-01-30T00:26:11;101598.69;;;3.61;61.65
6567;BME280;3317;43.994;22.878;2023-01-30T00:28:38;101605.84;;;3.61;61.70
6567;BME280;3317;43.994;22.878;2023-01-30T00:31:06;101607.50;;;3.63;61.63
6567;BME280;3317;43.994;22.878;2023-01-30T00:33:35;101595.81;;;3.64;61.49
6567;BME280;3317;43.994;22.878;2023-01-30T00:36:03;101596.72;;;3.65;61.76
6567;BME280;3317;43.994;22.878;2023-01-30T00:38:31;101592.00;;;3.69;61.49
6567;BME280;3317;43.994;22.878;2023-01-30T00:40:58;101600.16;;;3.67;61.69
6567;BME280;3317;43.994;22.878;2023-01-30T00:43:25;101592.88;;;3.69;61.45
6567;BME280;3317;43.994;22.878;2023-01-30T00:46:13;101595.66;;;3.67;61.61
6567;BME280;3317;43.994;22.878;2023-01-30T00:48:58;101598.25;;;3.69;61.69
6567;BME280;3317;43.994;22.878;2023-01-30T00:51:24;101591.16;;;3.68;61.71
6567;BME280;3317;43.994;22.878;2023-01-30T00:53:53;101594.78;;;3.67;61.58
6567;BME280;3317;43.994;22.878;2023-01-30T00:56:20;101589.31;;;3.69;61.66
6567;BME280;3317;43.994;22.878;2023-01-30T00:58:47;101587.53;;;3.69;61.52
6567;BME280;3317;43.994;22.878;2023-01-30T01:01:13;101581.28;;;3.69;61.34
6567;BME280;3317;43.994;22.878;2023-01-30T01:03:40;101581.03;;;3.73;61.33
6567;BME280;3317;43.994;22.878;2023-01-30T01:06:07;101581.97;;;3.72;61.03
6567;BME280;3317;43.994;22.878;2023-01-30T01:08:34;101582.84;;;3.73;61.24
6567;BME280;3317;43.994;22.878;2023-01-30T01:11:03;101584.91;;;3.67;61.41
6567;BME280;3317;43.994;22.878;2023-01-30T01:13:30;101576.28;;;3.62;61.19
6567;BME280;3317;43.994;22.878;2023-01-30T01:15:57;101584.41;;;3.61;61.37
6567;BME280;3317;43.994;22.878;2023-01-30T01:18:24;101577.31;;;3.60;61.48
6567;BME280;3317;43.994;22.878;2023-01-30T01:20:51;101570.06;;;3.62;61.29
6567;BME280;3317;43.994;22.878;2023-01-30T01:23:18;101559.88;;;3.52;61.50
6567;BME280;3317;43.994;22.878;2023-01-30T01:25:45;101566.53;;;3.61;61.50
6567;BME280;3317;43.994;22.878;2023-01-30T01:28:13;101557.97;;;3.55;61.41
6567;BME280;3317;43.994;22.878;2023-01-30T01:30:40;101565.06;;;3.56;61.76
6567;BME280;3317;43.994;22.878;2023-01-30T01:33:07;101562.44;;;3.54;61.98
6567;BME280;3317;43.994;22.878;2023-01-30T01:35:34;101565.06;;;3.56;61.63
6567;BME280;3317;43.994;22.878;2023-01-30T01:38:05;101560.38;;;3.59;62.15
6567;BME280;3317;43.994;22.878;2023-01-30T01:40:32;101546.09;;;3.59;61.91
6567;BME280;3317;43.994;22.878;2023-01-30T01:43:20;101549.66;;;3.59;61.90
6567;BME280;3317;43.994;22.878;2023-01-30T01:45:49;101540.75;;;3.59;61.70
6567;BME280;3317;43.994;22.878;2023-01-30T01:48:20;101536.72;;;3.51;61.85
6567;BME280;3317;43.994;22.878;2023-01-30T01:50:50;101555.22;;;3.56;61.63
6567;BME280;3317;43.994;22.878;2023-01-30T01:53:23;101536.00;;;3.48;61.68
6567;BME280;3317;43.994;22.878;2023-01-30T01:55:53;101548.09;;;3.55;61.74
6567;BME280;3317;43.994;22.878;2023-01-30T01:58:25;101540.25;;;3.52;61.74
6567;BME280;3317;43.994;22.878;2023-01-30T02:00:56;101541.88;;;3.55;62.12
6567;BME280;3317;43.994;22.878;2023-01-30T02:03:25;101548.09;;;3.55;62.04
6567;BME280;3317;43.994;22.878;2023-01-30T02:05:56;101546.28;;;3.56;61.81
6567;BME280;3317;43.994;22.878;2023-01-30T02:08:27;101544.38;;;3.58;61.96
6567;BME280;3317;43.994;22.878;2023-01-30T02:10:59;101544.38;;;3.58;62.10
6567;BME280;3317;43.994;22.878;2023-01-30T02:13:27;101543.25;;;3.62;62.14
6567;BME280;3317;43.994;22.878;2023-01-30T02:15:55;101536.97;;;3.63;62.21
6567;BME280;3317;43.994;22.878;2023-01-30T02:18:22;101543.09;;;3.65;62.18
6567;BME280;3317;43.994;22.878;2023-01-30T02:21:10;101539.63;;;3.63;62.15
6567;BME280;3317;43.994;22.878;2023-01-30T02:24:26;101534.28;;;3.63;62.52
6567;BME280;3317;43.994;22.878;2023-01-30T02:27:10;101537.88;;;3.62;62.50
6567;BME280;3317;43.994;22.878;2023-01-30T02:30:10;101544.03;;;3.64;62.47
6567;BME280;3317;43.994;22.878;2023-01-30T02:32:45;101542.47;;;3.60;62.45
6567;BME280;3317;43.994;22.878;2023-01-30T02:35:22;101535.31;;;3.60;62.55
6567;BME280;3317;43.994;22.878;2023-01-30T02:38:02;101536.16;;;3.61;62.88
6567;BME280;3317;43.994;22.878;2023-01-30T02:40:40;101527.28;;;3.60;63.10
6567;BME280;3317;43.994;22.878;2023-01-30T02:43:15;101532.63;;;3.60;62.92
6567;BME280;3317;43.994;22.878;2023-01-30T02:45:53;101529.84;;;3.62;63.24
6567;BME280;3317;43.994;22.878;2023-01-30T02:48:24;101529.06;;;3.60;62.88
6567;BME280;3317;43.994;22.878;2023-01-30T02:50:55;101528.41;;;3.56;63.19
6567;BME280;3317;43.994;22.878;2023-01-30T02:53:24;101523.19;;;3.53;63.19
6567;BME280;3317;43.994;22.878;2023-01-30T02:55:52;101531.94;;;3.57;63.10
6567;BME280;3317;43.994;22.878;2023-01-30T02:58:20;101535.75;;;3.52;63.30
6567;BME280;3317;43.994;22.878;2023-01-30T03:01:29;101518.03;;;3.50;63.33
6567;BME280;3317;43.994;22.878;2023-01-30T03:04:12;101525.03;;;3.52;63.38
6567;BME280;3317;43.994;22.878;2023-01-30T03:07:05;101530.28;;;3.54;63.90
6567;BME280;3317;43.994;22.878;2023-01-30T03:09:42;101522.34;;;3.52;63.81
6567;BME280;3317;43.994;22.878;2023-01-30T03:12:17;101514.19;;;3.54;63.90
6567;BME280;3317;43.994;22.878;2023-01-30T03:14:51;101506.53;;;3.48;63.91
6567;BME280;3317;43.994;22.878;2023-01-30T03:17:23;101511.91;;;3.48;63.68
6567;BME280;3317;43.994;22.878;2023-01-30T03:19:54;101505.66;;;3.47;64.01
6567;BME280;3317;43.994;22.878;2023-01-30T03:22:21;101507.50;;;3.47;63.80
6567;BME280;3317;43.994;22.878;2023-01-30T03:24:50;101503.34;;;3.41;63.86
6567;BME280;3317;43.994;22.878;2023-01-30T03:27:19;101496.78;;;3.47;63.99
6567;BME280;3317;43.994;22.878;2023-01-30T03:29:47;101486.31;;;3.42;64.39
6567;BME280;3317;43.994;22.878;2023-01-30T03:32:14;101502.41;;;3.42;64.65
6567;BME280;3317;43.994;22.878;2023-01-30T03:34:41;101498.25;;;3.36;64.59
6567;BME280;3317;43.994;22.878;2023-01-30T03:37:09;101495.75;;;3.33;64.87
6567;BME280;3317;43.994;22.878;2023-01-30T03:39:36;101489.50;;;3.33;65.04
6567;BME280;3317;43.994;22.878;2023-01-30T03:42:03;101492.38;;;3.30;64.73
6567;BME280;3317;43.994;22.878;2023-01-30T03:44:30;101491.34;;;3.32;64.88
6567;BME280;3317;43.994;22.878;2023-01-30T03:46:57;101477.06;;;3.32;64.99
6567;BME280;3317;43.994;22.878;2023-01-30T03:49:24;101491.41;;;3.31;65.14
6567;BME280;3317;43.994;22.878;2023-01-30T03:51:50;101472.75;;;3.29;65.45
6567;BME280;3317;43.994;22.878;2023-01-30T03:54:19;101480.63;;;3.32;65.14
6567;BME280;3317;43.994;22.878;2023-01-30T03:56:46;101484.41;;;3.28;65.48
6567;BME280;3317;43.994;22.878;2023-01-30T03:59:12;101482.81;;;3.26;65.57
6567;BME280;3317;43.994;22.878;2023-01-30T04:01:39;101491.78;;;3.24;65.40
6567;BME280;3317;43.994;22.878;2023-01-30T04:04:06;101488.22;;;3.24;65.52
6567;BME280;3317;43.994;22.878;2023-01-30T04:06:33;101479.75;;;3.16;65.36
6567;BME280;3317;43.994;22.878;2023-01-30T04:09:00;101478.72;;;3.18;65.71
6567;BME280;3317;43.994;22.878;2023-01-30T04:11:28;101484.84;;;3.20;65.34
6567;BME280;3317;43.994;22.878;2023-01-30T04:13:55;101479.69;;;3.17;65.29
6567;BME280;3317;43.994;22.878;2023-01-30T04:16:24;101474.31;;;3.17;65.42
6567;BME280;3317;43.994;22.878;2023-01-30T04:18:51;101468.78;;;3.20;65.45
6567;BME280;3317;43.994;22.878;2023-01-30T04:21:18;101466.47;;;3.14;65.54
6567;BME280;3317;43.994;22.878;2023-01-30T04:23:45;101466.47;;;3.14;65.75
6567;BME280;3317;43.994;22.878;2023-01-30T04:26:12;101431.72;;;2.96;65.99
6567;BME280;3317;43.994;22.878;2023-01-30T04:28:41;101469.91;;;3.16;65.88
6567;BME280;3317;43.994;22.878;2023-01-30T04:31:09;101467.25;;;3.16;66.13
6567;BME280;3317;43.994;22.878;2023-01-30T04:33:37;101471.66;;;3.17;65.86
6567;BME280;3317;43.994;22.878;2023-01-30T04:36:05;101461.88;;;3.16;65.46
6567;BME280;3317;43.994;22.878;2023-01-30T04:38:33;101469.03;;;3.16;64.80
6567;BME280;3317;43.994;22.878;2023-01-30T04:41:01;101466.38;;;3.16;64.70
6567;BME280;3317;43.994;22.878;2023-01-30T04:43:28;101468.28;;;3.14;64.11
6567;BME280;3317;43.994;22.878;2023-01-30T04:45:57;101483.50;;;3.13;63.70
6567;BME280;3317;43.994;22.878;2023-01-30T04:48:24;101480.91;;;3.12;63.56
6567;BME280;3317;43.994;22.878;2023-01-30T04:50:53;101415.59;;;2.82;63.36
6567;BME280;3317;43.994;22.878;2023-01-30T04:53:20;101476.22;;;3.15;63.34
6567;BME280;3317;43.994;22.878;2023-01-30T04:55:47;101473.56;;;3.15;62.89
6567;BME280;3317;43.994;22.878;2023-01-30T04:58:15;101473.63;;;3.14;62.99
6567;BME280;3317;43.994;22.878;2023-01-30T05:00:43;101474.31;;;3.17;63.09
6567;BME280;3317;43.994;22.878;2023-01-30T05:03:12;101476.94;;;3.19;62.90
6567;BME280;3317;43.994;22.878;2023-01-30T05:05:39;101477.97;;;3.16;62.88
6567;BME280;3317;43.994;22.878;2023-01-30T05:08:06;101479.75;;;3.16;62.65
6567;BME280;3317;43.994;22.878;2023-01-30T05:10:33;101476.22;;;3.15;62.54
6567;BME280;3317;43.994;22.878;2023-01-30T05:13:03;101478.91;;;3.15;62.10
6567;BME280;3317;43.994;22.878;2023-01-30T05:15:31;101472.59;;;3.16;62.00
6567;BME280;3317;43.994;22.878;2023-01-30T05:17:58;101476.81;;;3.20;61.26
6567;BME280;3317;43.994;22.878;2023-01-30T05:20:27;101472.41;;;3.19;61.19
6567;BME280;3317;43.994;22.878;2023-01-30T05:22:53;101471.66;;;3.17;61.08
6567;BME280;3317;43.994;22.878;2023-01-30T05:25:20;101471.72;;;3.16;60.62
6567;BME280;3317;43.994;22.878;2023-01-30T05:27:48;101472.41;;;3.19;60.78
6567;BME280;3317;43.994;22.878;2023-01-30T05:30:15;101480.56;;;3.18;61.38
6567;BME280;3317;43.994;22.878;2023-01-30T05:32:42;101479.69;;;3.17;61.04
6567;BME280;3317;43.994;22.878;2023-01-30T05:35:09;101486.00;;;3.16;60.91
6567;BME280;3317;43.994;22.878;2023-01-30T05:37:38;101486.84;;;3.17;60.40
6567;BME280;3317;43.994;22.878;2023-01-30T05:40:05;101478.81;;;3.17;60.29
6567;BME280;3317;43.994;22.878;2023-01-30T05:42:33;101471.47;;;3.20;60.08
6567;BME280;3317;43.994;22.878;2023-01-30T05:45:00;101468.88;;;3.19;59.31
6567;BME280;3317;43.994;22.878;2023-01-30T05:47:27;101476.22;;;3.15;59.04
6567;BME280;3317;43.994;22.878;2023-01-30T05:49:54;101473.56;;;3.15;58.47
6567;BME280;3317;43.994;22.878;2023-01-30T05:52:20;101473.63;;;3.14;58.39
6567;BME280;3317;43.994;22.878;2023-01-30T05:54:49;101481.59;;;3.15;58.13
6567;BME280;3317;43.994;22.878;2023-01-30T05:57:16;101480.03;;;3.11;57.77
6567;BME280;3317;43.994;22.878;2023-01-30T05:59:43;101483.66;;;3.10;57.48
6567;BME280;3317;43.994;22.878;2023-01-30T06:02:10;101489.69;;;3.14;58.91
6567;BME280;3317;43.994;22.878;2023-01-30T06:04:36;101491.59;;;3.12;58.97
6567;BME280;3317;43.994;22.878;2023-01-30T06:07:04;101494.03;;;3.16;58.80
6567;BME280;3317;43.994;22.878;2023-01-30T06:09:31;101495.81;;;3.16;58.66
6567;BME280;3317;43.994;22.878;2023-01-30T06:11:59;101487.97;;;3.13;58.38
6567;BME280;3317;43.994;22.878;2023-01-30T06:14:26;101476.03;;;3.02;58.07
6567;BME280;3317;43.994;22.878;2023-01-30T06:16:53;101483.66;;;3.10;58.15
6567;BME280;3317;43.994;22.878;2023-01-30T06:19:19;101481.84;;;3.10;58.55
6567;BME280;3317;43.994;22.878;2023-01-30T06:21:46;101474.94;;;3.06;58.59
6567;BME280;3317;43.994;22.878;2023-01-30T06:24:13;101432.84;;;2.76;58.17
6567;BME280;3317;43.994;22.878;2023-01-30T06:26:40;101479.34;;;3.07;58.46
6567;BME280;3317;43.994;22.878;2023-01-30T06:29:08;101479.25;;;3.09;58.87
6567;BME280;3317;43.994;22.878;2023-01-30T06:31:35;101488.16;;;3.09;58.38
6567;BME280;3317;43.994;22.878;2023-01-30T06:34:02;101481.91;;;3.09;58.37
6567;BME280;3317;43.994;22.878;2023-01-30T06:36:29;101437.19;;;2.79;57.95
6567;BME280;3317;43.994;22.878;2023-01-30T06:38:56;101484.72;;;3.07;58.24
6567;BME280;3317;43.994;22.878;2023-01-30T06:41:23;101483.56;;;3.12;58.19
6567;BME280;3317;43.994;22.878;2023-01-30T06:43:50;101478.47;;;3.07;58.24
6567;BME280;3317;43.994;22.878;2023-01-30T06:46:18;101483.66;;;3.10;58.39
6567;BME280;3317;43.994;22.878;2023-01-30T06:48:45;101481.84;;;3.10;58.30
6567;BME280;3317;43.994;22.878;2023-01-30T06:51:12;101470.16;;;2.95;58.14
6567;BME280;3317;43.994;22.878;2023-01-30T06:53:39;101491.78;;;3.08;58.58
6567;BME280;3317;43.994;22.878;2023-01-30T06:56:06;101485.41;;;3.11;57.80
6567;BME280;3317;43.994;22.878;2023-01-30T06:58:33;101484.72;;;3.07;58.33
6567;BME280;3317;43.994;22.878;2023-01-30T07:01:00;101475.03;;;3.05;58.32
6567;BME280;3317;43.994;22.878;2023-01-30T07:03:28;101494.72;;;3.04;57.98
6567;BME280;3317;43.994;22.878;2023-01-30T07:05:55;101498.34;;;3.03;57.91
6567;BME280;3317;43.994;22.878;2023-01-30T07:08:22;101490.31;;;3.03;58.03
6567;BME280;3317;43.994;22.878;2023-01-30T07:10:49;101493.84;;;3.03;57.75
6567;BME280;3317;43.994;22.878;2023-01-30T07:13:16;101485.72;;;3.05;58.13
6567;BME280;3317;43.994;22.878;2023-01-30T07:15:43;101464.66;;;2.99;58.04
6567;BME280;3317;43.994;22.878;2023-01-30T07:18:11;101487.38;;;3.07;58.00
6567;BME280;3317;43.994;22.878;2023-01-30T07:20:40;101491.69;;;3.10;58.39
6567;BME280;3317;43.994;22.878;2023-01-30T07:23:07;101487.38;;;3.07;57.41
6567;BME280;3317;43.994;22.878;2023-01-30T07:25:34;101497.22;;;3.07;56.88
6567;BME280;3317;43.994;22.878;2023-01-30T07:28:02;101503.34;;;3.09;56.83
6567;BME280;3317;43.994;22.878;2023-01-30T07:30:31;101505.88;;;3.12;56.93
6567;BME280;3317;43.994;22.878;2023-01-30T07:32:58;101513.91;;;3.12;56.98
6567;BME280;3317;43.994;22.878;2023-01-30T07:35:27;101513.81;;;3.14;56.81
6567;BME280;3317;43.994;22.878;2023-01-30T07:37:56;101515.47;;;3.16;57.14
6567;BME280;3317;43.994;22.878;2023-01-30T07:40:24;101507.25;;;3.19;56.87
6567;BME280;3317;43.994;22.878;2023-01-30T07:42:55;101500.09;;;3.20;56.61
6567;BME280;3317;43.994;22.878;2023-01-30T07:45:23;101508.78;;;3.23;56.79
6567;BME280;3317;43.994;22.878;2023-01-30T07:47:50;101505.06;;;3.26;57.17
6567;BME280;3317;43.994;22.878;2023-01-30T07:50:17;101499.47;;;3.31;57.30
6567;BME280;3317;43.994;22.878;2023-01-30T07:52:44;101501.00;;;3.35;57.42
6567;BME280;3317;43.994;22.878;2023-01-30T07:55:13;101494.34;;;3.42;58.31
6567;BME280;3317;43.994;22.878;2023-01-30T07:57:40;101494.28;;;3.44;58.39
6567;BME280;3317;43.994;22.878;2023-01-30T08:00:08;101488.63;;;3.48;57.83
6567;BME280;3317;43.994;22.878;2023-01-30T08:02:36;101482.50;;;3.46;57.33
6567;BME280;3317;43.994;22.878;2023-01-30T08:05:04;101486.31;;;3.42;56.62
6567;BME280;3317;43.994;22.878;2023-01-30T08:07:31;101485.34;;;3.43;56.76
6567;BME280;3317;43.994;22.878;2023-01-30T08:09:58;101479.22;;;3.41;56.52
6567;BME280;3317;43.994;22.878;2023-01-30T08:12:26;101477.69;;;3.37;56.59
6567;BME280;3317;43.994;22.878;2023-01-30T08:14:53;101477.50;;;3.40;56.74
6567;BME280;3317;43.994;22.878;2023-01-30T08:17:20;101464.81;;;3.28;56.31
6567;BME280;3317;43.994;22.878;2023-01-30T08:19:48;101472.41;;;3.35;56.32
6567;BME280;3317;43.994;22.878;2023-01-30T08:22:14;101477.13;;;3.46;56.24
6567;BME280;3317;43.994;22.878;2023-01-30T08:24:41;101479.13;;;3.43;55.55
6567;BME280;3317;43.994;22.878;2023-01-30T08:27:08;101472.91;;;3.42;55.21
6567;BME280;3317;43.994;22.878;2023-01-30T08:29:37;101480.88;;;3.44;55.44
6567;BME280;3317;43.994;22.878;2023-01-30T08:32:05;101474.19;;;3.51;55.07
6567;BME280;3317;43.994;22.878;2023-01-30T08:34:32;101479.72;;;3.48;55.06
6567;BME280;3317;43.994;22.878;2023-01-30T08:36:59;101483.09;;;3.51;54.14
6567;BME280;3317;43.994;22.878;2023-01-30T08:39:26;101481.19;;;3.54;54.44
6567;BME280;3317;43.994;22.878;2023-01-30T08:41:52;101483.75;;;3.55;54.15
6567;BME280;3317;43.994;22.878;2023-01-30T08:44:19;101481.19;;;3.54;53.85
6567;BME280;3317;43.994;22.878;2023-01-30T08:46:48;101481.50;;;3.63;54.39
6567;BME280;3317;43.994;22.878;2023-01-30T08:49:15;101496.63;;;3.64;53.71
6567;BME280;3317;43.994;22.878;2023-01-30T08:51:41;101496.56;;;3.66;53.40
6567;BME280;3317;43.994;22.878;2023-01-30T08:54:08;101489.28;;;3.68;53.06
6567;BME280;3317;43.994;22.878;2023-01-30T08:56:35;101496.19;;;3.72;53.23
6567;BME280;3317;43.994;22.878;2023-01-30T08:59:02;101482.00;;;3.70;53.00
6567;BME280;3317;43.994;22.878;2023-01-30T09:01:29;101483.66;;;3.73;52.79
6567;BME280;3317;43.994;22.878;2023-01-30T09:03:57;101480.28;;;3.69;52.07
6567;BME280;3317;43.994;22.878;2023-01-30T09:06:24;101476.66;;;3.70;52.55
6567;BME280;3317;43.994;22.878;2023-01-30T09:08:51;101473.78;;;3.73;52.72
6567;BME280;3317;43.994;22.878;2023-01-30T09:11:18;101470.75;;;3.79;52.58
6567;BME280;3317;43.994;22.878;2023-01-30T09:13:45;101473.63;;;3.76;51.61
6567;BME280;3317;43.994;22.878;2023-01-30T09:16:12;101469.03;;;3.78;52.06
6567;BME280;3317;43.994;22.878;2023-01-30T09:18:40;101470.75;;;3.79;51.91
6567;BME280;3317;43.994;22.878;2023-01-30T09:21:10;101467.97;;;3.81;51.62
6567;BME280;3317;43.994;22.878;2023-01-30T09:23:38;101459.84;;;3.83;51.61
6567;BME280;3317;43.994;22.878;2023-01-30T09:26:05;101461.56;;;3.84;51.61
6567;BME280;3317;43.994;22.878;2023-01-30T09:28:33;101451.59;;;3.86;52.01
6567;BME280;3317;43.994;22.878;2023-01-30T09:31:02;101447.56;;;3.78;51.21
6567;BME280;3317;43.994;22.878;2023-01-30T09:33:32;101444.50;;;3.85;51.05
6567;BME280;3317;43.994;22.878;2023-01-30T09:36:00;101444.44;;;3.86;51.45
6567;BME280;3317;43.994;22.878;2023-01-30T09:38:28;101448.84;;;3.87;50.79
6567;BME280;3317;43.994;22.878;2023-01-30T09:44:13;101441.28;;;3.94;51.50
6567;BME280;3317;43.994;22.878;2023-01-30T09:46:49;101432.28;;;3.95;50.74
6567;BME280;3317;43.994;22.878;2023-01-30T09:49:28;101427.59;;;3.99;50.92
6567;BME280;3317;43.994;22.878;2023-01-30T09:52:07;101421.84;;;4.05;51.45
6567;BME280;3317;43.994;22.878;2023-01-30T09:54:42;101415.44;;;4.07;52.01
6567;BME280;3317;43.994;22.878;2023-01-30T09:57:12;101410.81;;;4.09;51.44
6567;BME280;3317;43.994;22.878;2023-01-30T09:59:51;101415.44;;;4.07;50.50
6567;BME280;3317;43.994;22.878;2023-01-30T10:02:33;101409.88;;;4.11;50.94
6567;BME280;3317;43.994;22.878;2023-01-30T10:05:01;101400.84;;;4.12;50.81
6567;BME280;3317;43.994;22.878;2023-01-30T10:07:38;101398.78;;;4.17;51.11
6567;BME280;3317;43.994;22.878;2023-01-30T10:10:15;101395.88;;;4.20;50.56
6567;BME280;3317;43.994;22.878;2023-01-30T10:12:54;101370.59;;;4.09;50.55
6567;BME280;3317;43.994;22.878;2023-01-30T10:15:42;101390.53;;;4.20;50.42
6567;BME280;3317;43.994;22.878;2023-01-30T10:21:16;101368.84;;;4.23;50.50
6567;BME280;3317;43.994;22.878;2023-01-30T10:24:13;101356.13;;;4.27;50.85
6567;BME280;3317;43.994;22.878;2023-01-30T10:26:46;101350.16;;;4.36;51.18
6567;BME280;3317;43.994;22.878;2023-01-30T10:29:17;101350.34;;;4.33;50.73
6567;BME280;3317;43.994;22.878;2023-01-30T10:31:48;101349.66;;;4.44;50.63
6567;BME280;3317;43.994;22.878;2023-01-30T10:34:19;101344.84;;;4.49;49.93
6567;BME280;3317;43.994;22.878;2023-01-30T10:36:51;101339.50;;;4.49;49.91
6567;BME280;3317;43.994;22.878;2023-01-30T10:39:25;101328.38;;;4.55;54.96
6567;BME280;3317;43.994;22.878;2023-01-30T10:42:01;101326.78;;;4.65;52.32
6567;BME280;3317;43.994;22.878;2023-01-30T10:44:31;101333.56;;;4.71;51.13
6567;BME280;3317;43.994;22.878;2023-01-30T10:47:15;101322.53;;;4.76;51.18
6567;BME280;3317;43.994;22.878;2023-01-30T10:49:50;101310.66;;;4.80;50.66
6567;BME280;3317;43.994;22.878;2023-01-30T10:52:27;101307.00;;;4.81;49.69
6567;BME280;3317;43.994;22.878;2023-01-30T10:55:03;101296.88;;;4.85;49.68
6567;BME280;3317;43.994;22.878;2023-01-30T10:57:42;101293.06;;;4.89;49.36
6567;BME280;3317;43.994;22.878;2023-01-30T11:00:18;101284.13;;;4.88;49.13
6567;BME280;3317;43.994;22.878;2023-01-30T11:03:07;101283.16;;;4.89;48.72
6567;BME280;3317;43.994;22.878;2023-01-30T11:05:41;101276.72;;;4.92;49.42
6567;BME280;3317;43.994;22.878;2023-01-30T11:08:19;101273.94;;;4.93;48.62
6567;BME280;3317;43.994;22.878;2023-01-30T11:10:47;101265.22;;;4.90;47.82
6567;BME280;3317;43.994;22.878;2023-01-30T11:13:16;101224.94;;;4.90;48.03
6567;BME280;3317;43.994;22.878;2023-01-30T11:15:45;101245.28;;;5.07;48.25
6567;BME280;3317;43.994;22.878;2023-01-30T11:18:15;101240.44;;;5.12;48.01
6567;BME280;3317;43.994;22.878;2023-01-30T11:20:44;101226.69;;;5.17;48.33
6567;BME280;3317;43.994;22.878;2023-01-30T11:23:24;101198.94;;;5.16;48.53
6567;BME280;3317;43.994;22.878;2023-01-30T11:25:54;101189.81;;;5.32;49.55
6567;BME280;3317;43.994;22.878;2023-01-30T11:28:25;101195.50;;;5.53;49.05
6567;BME280;3317;43.994;22.878;2023-01-30T11:30:55;101199.44;;;5.60;48.30
6567;BME280;3317;43.994;22.878;2023-01-30T11:33:30;101181.94;;;5.55;47.44
6567;BME280;3317;43.994;22.878;2023-01-30T11:36:00;101181.16;;;5.66;46.33
6567;BME280;3317;43.994;22.878;2023-01-30T11:38:29;101183.63;;;5.69;46.44
6567;BME280;3317;43.994;22.878;2023-01-30T11:41:02;101166.19;;;5.74;46.82
6567;BME280;3317;43.994;22.878;2023-01-30T11:43:32;101161.31;;;5.80;46.87
6567;BME280;3317;43.994;22.878;2023-01-30T11:46:00;101154.63;;;5.85;46.66
6567;BME280;3317;43.994;22.878;2023-01-30T11:48:29;101154.59;;;5.98;49.34
6567;BME280;3317;43.994;22.878;2023-01-30T11:50:59;101145.56;;;5.99;47.45
6567;BME280;3317;43.994;22.878;2023-01-30T11:53:32;101143.69;;;6.13;49.66
6567;BME280;3317;43.994;22.878;2023-01-30T11:56:04;101140.78;;;6.16;47.82
6567;BME280;3317;43.994;22.878;2023-01-30T11:58:36;101131.97;;;6.14;46.58
6567;BME280;3317;43.994;22.878;2023-01-30T12:01:04;101124.53;;;6.17;47.04
6567;BME280;3317;43.994;22.878;2023-01-30T12:03:38;101108.59;;;6.14;46.18
6567;BME280;3317;43.994;22.878;2023-01-30T12:06:09;101102.28;;;6.27;47.66
6567;BME280;3317;43.994;22.878;2023-01-30T12:08:37;101118.31;;;6.28;47.02
6567;BME280;3317;43.994;22.878;2023-01-30T12:11:23;101116.25;;;6.32;45.88
6567;BME280;3317;43.994;22.878;2023-01-30T12:13:53;101098.78;;;6.38;47.90
6567;BME280;3317;43.994;22.878;2023-01-30T12:16:23;101100.25;;;6.42;47.28
6567;BME280;3317;43.994;22.878;2023-01-30T12:18:59;101095.13;;;6.39;45.04
6567;BME280;3317;43.994;22.878;2023-01-30T12:21:35;101100.72;;;6.36;44.87
6567;BME280;3317;43.994;22.878;2023-01-30T12:24:12;101089.47;;;6.42;46.19
6567;BME280;3317;43.994;22.878;2023-01-30T12:26:45;101091.94;;;6.45;47.23
6567;BME280;3317;43.994;22.878;2023-01-30T12:29:22;101086.34;;;6.48;47.79
6567;BME280;3317;43.994;22.878;2023-01-30T12:31:56;101080.09;;;6.59;49.74
6567;BME280;3317;43.994;22.878;2023-01-30T12:34:27;101038.81;;;6.36;51.47
6567;BME280;3317;43.994;22.878;2023-01-30T12:37:01;101083.28;;;6.64;47.97
6567;BME280;3317;43.994;22.878;2023-01-30T12:39:40;101076.81;;;6.67;49.34
6567;BME280;3317;43.994;22.878;2023-01-30T12:42:33;101068.38;;;6.71;48.85
6567;BME280;3317;43.994;22.878;2023-01-30T12:45:17;101050.13;;;6.64;50.15
6567;BME280;3317;43.994;22.878;2023-01-30T12:48:10;101074.38;;;6.75;46.63
6567;BME280;3317;43.994;22.878;2023-01-30T12:50:50;101069.38;;;6.82;48.10
6567;BME280;3317;43.994;22.878;2023-01-30T12:53:31;101061.91;;;6.74;45.94
6567;BME280;3317;43.994;22.878;2023-01-30T12:56:14;101068.38;;;6.71;45.77
6567;BME280;3317;43.994;22.878;2023-01-30T12:58:47;101058.94;;;6.66;45.52
6567;BME280;3317;43.994;22.878;2023-01-30T13:01:26;101054.16;;;6.69;46.02
6567;BME280;3317;43.994;22.878;2023-01-30T13:04:00;101044.56;;;6.54;45.20
6567;BME280;3317;43.994;22.878;2023-01-30T13:06:48;101047.16;;;6.55;45.55
6567;BME280;3317;43.994;22.878;2023-01-30T13:12:29;101024.41;;;6.48;45.32
6567;BME280;3317;43.994;22.878;2023-01-30T13:15:02;101014.34;;;6.39;45.42
6567;BME280;3317;43.994;22.878;2023-01-30T13:17:45;101023.53;;;6.47;46.02
6567;BME280;3317;43.994;22.878;2023-01-30T13:20:27;101013.84;;;6.45;46.36
6567;BME280;3317;43.994;22.878;2023-01-30T13:23:04;101014.09;;;6.42;45.64
6567;BME280;3317;43.994;22.878;2023-01-30T13:25:41;101013.22;;;6.30;45.39
6567;BME280;3317;43.994;22.878;2023-01-30T13:28:15;101009.91;;;6.26;46.76
6567;BME280;3317;43.994;22.878;2023-01-30T13:30:44;100998.03;;;6.17;46.42
6567;BME280;3317;43.994;22.878;2023-01-30T13:33:19;100997.31;;;6.15;47.20
6567;BME280;3317;43.994;22.878;2023-01-30T13:35:50;100999.13;;;6.15;47.60
6567;BME280;3317;43.994;22.878;2023-01-30T13:38:22;100990.91;;;6.05;48.13